sensor_id;sensor_type;location;lat;lon;timestamp;temperature;humidity
18690;DHT22;9782;52.930;15.562;2022-08-19T18:57:50;23.90;1.00
18690;DHT22;9782;52.930;15.562;2022-08-19T19:00:17;24.30;99.90
18690;DHT22;9782;52.930;15.562;2022-08-19T19:02:47;24.30;99.90
18690;DHT22;9782;52.930;15.562;2022-08-19T19:05:14;24.30;99.90
18690;DHT22;9782;52.930;15.562;2022-08-19T19:07:44;24.40;99.90
18690;DHT22;9782;52.930;15.562;2022-08-19T19:10:11;24.40;99.90
18690;DHT22;9782;52.930;15.562;2022-08-19T19:12:40;24.30;99.90
18690;DHT22;9782;52.930;15.562;2022-08-19T19:15:10;24.40;99.90
18690;DHT22;9782;52.930;15.562;2022-08-19T19:17:41;24.40;99.90
18690;DHT22;9782;52.930;15.562;2022-08-19T19:20:10;24.40;99.90
18690;DHT22;9782;52.930;15.562;2022-08-19T19:22:40;24.40;99.90
18690;DHT22;9782;52.930;15.562;2022-08-19T19:25:08;24.40;99.90
18690;DHT22;9782;52.930;15.562;2022-08-19T19:27:36;24.40;99.90
18690;DHT22;9782;52.930;15.562;2022-08-19T19:30:05;24.40;99.90
18690;DHT22;9782;52.930;15.562;2022-08-19T19:32:35;24.40;99.90
18690;DHT22;9782;52.930;15.562;2022-08-19T19:35:03;24.50;99.90
18690;DHT22;9782;52.930;15.562;2022-08-19T19:37:35;24.50;99.90
18690;DHT22;9782;52.930;15.562;2022-08-19T19:40:02;24.50;99.90
18690;DHT22;9782;52.930;15.562;2022-08-19T19:42:29;24.50;99.90
18690;DHT22;9782;52.930;15.562;2022-08-19T19:44:56;24.40;99.90
18690;DHT22;9782;52.930;15.562;2022-08-19T19:47:25;24.40;99.90
18690;DHT22;9782;52.930;15.562;2022-08-19T19:49:54;24.30;99.90
18690;DHT22;9782;52.930;15.562;2022-08-19T19:52:21;24.30;99.90
18690;DHT22;9782;52.930;15.562;2022-08-19T19:54:48;24.20;99.90
18690;DHT22;9782;52.930;15.562;2022-08-19T19:57:14;24.20;99.90
18690;DHT22;9782;52.930;15.562;2022-08-19T19:59:41;24.10;99.90
18690;DHT22;9782;52.930;15.562;2022-08-19T20:02:08;24.10;99.90
18690;DHT22;9782;52.930;15.562;2022-08-19T20:04:36;24.00;99.90
18690;DHT22;9782;52.930;15.562;2022-08-19T20:07:05;24.00;99.90
18690;DHT22;9782;52.930;15.562;2022-08-19T20:09:32;24.00;99.90
18690;DHT22;9782;52.930;15.562;2022-08-19T20:11:58;23.90;1.00
18690;DHT22;9782;52.930;15.562;2022-08-19T20:14:28;23.80;1.00
18690;DHT22;9782;52.930;15.562;2022-08-19T20:16:56;23.80;1.00
18690;DHT22;9782;52.930;15.562;2022-08-19T20:19:27;23.70;1.00
18690;DHT22;9782;52.930;15.562;2022-08-19T20:21:55;23.70;1.00
18690;DHT22;9782;52.930;15.562;2022-08-19T20:24:27;23.50;1.00
18690;DHT22;9782;52.930;15.562;2022-08-19T20:26:57;23.50;1.00
18690;DHT22;9782;52.930;15.562;2022-08-19T20:29:25;23.50;1.00
18690;DHT22;9782;52.930;15.562;2022-08-19T20:31:53;23.40;1.00
18690;DHT22;9782;52.930;15.562;2022-08-19T20:34:20;23.40;99.90
18690;DHT22;9782;52.930;15.562;2022-08-19T20:36:47;23.40;99.90
18690;DHT22;9782;52.930;15.562;2022-08-19T20:39:14;23.50;99.90
18690;DHT22;9782;52.930;15.562;2022-08-19T20:41:42;23.50;99.90
18690;DHT22;9782;52.930;15.562;2022-08-19T20:44:09;23.50;99.90
18690;DHT22;9782;52.930;15.562;2022-08-19T20:46:37;23.50;99.90
18690;DHT22;9782;52.930;15.562;2022-08-19T20:49:04;23.50;99.90
18690;DHT22;9782;52.930;15.562;2022-08-19T20:51:31;23.40;99.90
18690;DHT22;9782;52.930;15.562;2022-08-19T20:53:58;23.40;99.90
18690;DHT22;9782;52.930;15.562;2022-08-19T20:56:26;23.30;99.90
18690;DHT22;9782;52.930;15.562;2022-08-19T20:58:54;23.30;99.90
18690;DHT22;9782;52.930;15.562;2022-08-19T21:01:21;23.20;1.00
18690;DHT22;9782;52.930;15.562;2022-08-19T21:03:49;23.30;1.00
18690;DHT22;9782;52.930;15.562;2022-08-19T21:06:16;23.30;1.00
18690;DHT22;9782;52.930;15.562;2022-08-19T21:08:44;23.20;1.00
18690;DHT22;9782;52.930;15.562;2022-08-19T21:11:11;23.20;1.00
18690;DHT22;9782;52.930;15.562;2022-08-19T21:13:39;23.20;1.00
18690;DHT22;9782;52.930;15.562;2022-08-19T21:16:07;23.20;1.00
18690;DHT22;9782;52.930;15.562;2022-08-19T21:18:34;23.20;1.00
18690;DHT22;9782;52.930;15.562;2022-08-19T21:21:02;23.10;1.00
18690;DHT22;9782;52.930;15.562;2022-08-19T21:23:30;23.10;1.00
18690;DHT22;9782;52.930;15.562;2022-08-19T21:25:59;23.10;1.00
18690;DHT22;9782;52.930;15.562;2022-08-19T21:28:26;23.00;1.00
18690;DHT22;9782;52.930;15.562;2022-08-19T21:30:54;23.00;1.00
18690;DHT22;9782;52.930;15.562;2022-08-19T21:33:23;23.00;1.00
18690;DHT22;9782;52.930;15.562;2022-08-19T21:35:51;23.00;1.00
18690;DHT22;9782;52.930;15.562;2022-08-19T21:38:18;23.00;1.00
18690;DHT22;9782;52.930;15.562;2022-08-19T21:40:45;23.00;31.10
18690;DHT22;9782;52.930;15.562;2022-08-19T21:43:12;23.00;46.70
18690;DHT22;9782;52.930;15.562;2022-08-19T21:45:39;23.00;99.90
18690;DHT22;9782;52.930;15.562;2022-08-19T21:48:06;23.00;99.90
18690;DHT22;9782;52.930;15.562;2022-08-19T21:50:35;22.90;99.90
18690;DHT22;9782;52.930;15.562;2022-08-19T21:53:02;22.90;99.90
18690;DHT22;9782;52.930;15.562;2022-08-19T21:55:29;23.00;99.90
18690;DHT22;9782;52.930;15.562;2022-08-19T21:57:56;23.00;99.90
18690;DHT22;9782;52.930;15.562;2022-08-19T22:00:24;22.90;99.90
18690;DHT22;9782;52.930;15.562;2022-08-19T22:02:53;22.90;99.90
18690;DHT22;9782;52.930;15.562;2022-08-19T22:05:21;22.80;99.90
18690;DHT22;9782;52.930;15.562;2022-08-19T22:07:51;22.80;1.00
18690;DHT22;9782;52.930;15.562;2022-08-19T22:10:19;22.80;1.00
18690;DHT22;9782;52.930;15.562;2022-08-19T22:12:46;22.70;1.00
18690;DHT22;9782;52.930;15.562;2022-08-19T22:15:13;22.70;1.00
18690;DHT22;9782;52.930;15.562;2022-08-19T22:17:40;22.70;1.00
18690;DHT22;9782;52.930;15.562;2022-08-19T22:20:09;22.70;1.00
18690;DHT22;9782;52.930;15.562;2022-08-19T22:22:37;22.60;1.00
18690;DHT22;9782;52.930;15.562;2022-08-19T22:25:07;22.60;1.00
18690;DHT22;9782;52.930;15.562;2022-08-19T22:27:33;22.60;1.00
18690;DHT22;9782;52.930;15.562;2022-08-19T22:30:01;22.60;1.00
18690;DHT22;9782;52.930;15.562;2022-08-19T22:32:27;22.60;13.40
18690;DHT22;9782;52.930;15.562;2022-08-19T22:34:56;22.60;1.00
18690;DHT22;9782;52.930;15.562;2022-08-19T22:37:23;22.60;1.00
18690;DHT22;9782;52.930;15.562;2022-08-19T22:39:50;22.60;1.00
18690;DHT22;9782;52.930;15.562;2022-08-19T22:42:18;22.60;1.00
18690;DHT22;9782;52.930;15.562;2022-08-19T22:44:45;22.60;1.00
18690;DHT22;9782;52.930;15.562;2022-08-19T22:47:12;22.60;1.00
18690;DHT22;9782;52.930;15.562;2022-08-19T22:49:39;22.50;1.00
18690;DHT22;9782;52.930;15.562;2022-08-19T22:52:05;22.50;1.00
18690;DHT22;9782;52.930;15.562;2022-08-19T22:54:43;22.50;1.00
18690;DHT22;9782;52.930;15.562;2022-08-19T22:57:10;22.50;1.00
18690;DHT22;9782;52.930;15.562;2022-08-19T22:59:39;22.40;1.00
18690;DHT22;9782;52.930;15.562;2022-08-19T23:02:07;22.40;1.00
18690;DHT22;9782;52.930;15.562;2022-08-19T23:04:35;22.30;1.00
18690;DHT22;9782;52.930;15.562;2022-08-19T23:07:02;22.30;1.00
18690;DHT22;9782;52.930;15.562;2022-08-19T23:09:30;22.30;1.00
18690;DHT22;9782;52.930;15.562;2022-08-19T23:11:57;22.20;1.00
18690;DHT22;9782;52.930;15.562;2022-08-19T23:14:25;22.20;1.00
18690;DHT22;9782;52.930;15.562;2022-08-19T23:16:54;22.20;1.00
18690;DHT22;9782;52.930;15.562;2022-08-19T23:19:21;22.10;1.00
18690;DHT22;9782;52.930;15.562;2022-08-19T23:21:48;22.10;1.00
18690;DHT22;9782;52.930;15.562;2022-08-19T23:24:17;22.10;1.00
18690;DHT22;9782;52.930;15.562;2022-08-19T23:26:44;22.10;1.00
18690;DHT22;9782;52.930;15.562;2022-08-19T23:29:25;22.10;1.00
18690;DHT22;9782;52.930;15.562;2022-08-19T23:32:11;22.10;1.00
18690;DHT22;9782;52.930;15.562;2022-08-19T23:34:37;22.10;39.20
18690;DHT22;9782;52.930;15.562;2022-08-19T23:37:05;22.10;99.90
18690;DHT22;9782;52.930;15.562;2022-08-19T23:39:32;22.10;99.90
18690;DHT22;9782;52.930;15.562;2022-08-19T23:41:59;22.20;99.90
18690;DHT22;9782;52.930;15.562;2022-08-19T23:44:27;22.20;99.90
18690;DHT22;9782;52.930;15.562;2022-08-19T23:46:54;22.20;99.90
18690;DHT22;9782;52.930;15.562;2022-08-19T23:49:24;22.20;99.90
18690;DHT22;9782;52.930;15.562;2022-08-19T23:51:52;22.20;99.90
18690;DHT22;9782;52.930;15.562;2022-08-19T23:54:20;22.30;99.90
18690;DHT22;9782;52.930;15.562;2022-08-19T23:56:47;22.30;99.90
18690;DHT22;9782;52.930;15.562;2022-08-19T23:59:14;22.30;99.90
